Terminal Aerodrome Forecast
Issued by NWS

Home | Current Version | Previous Version | Text Only | Print | Product List | Glossary On
Versions: 1 2 3 4 5 6 7 8 9 10 11 12 13 14 15 16 17 18 19 20 21 22 23 24 25 26
000
FTUS41 KOKX 302000 AAA
TAFHPN
TAF AMD
KHPN 302031Z 3021/3118 20006KT P6SM SCT060
     FM310100 VRB03KT P6SM SCT250
     FM311400 20007KT P6SM BKN050
      AMD NOT SKED=

USA.gov is the U.S. government's official web portal to all federal, state and local government web resources and services.